Time;durP1;ratioP1;P1;durP2;ratioP2;P2;SDS_P1;SDS_P2;PMS_P1;PMS_P2;Temp;Humidity;BMP_temperature;BMP_pressure;BME280_temperature;BME280_humidity;BME280_pressure;Samples;Min_cycle;Max_cycle;Signal;HPM_P1;HPM_P2
2022/08/12 00:42:52;;;;;;;8.13;7.53;;;15.80;1.00;;;;;;5031233;28;20508;-53
2022/08/12 00:45:19;;;;;;;8.20;7.60;;;15.80;1.00;;;;;;5030165;28;20446;-53
2022/08/12 00:47:45;;;;;;;7.77;7.27;;;15.70;1.00;;;;;;5030861;28;20419;-54
2022/08/12 00:50:18;;;;;;;7.63;7.00;;;15.70;1.00;;;;;;5025506;28;20532;-52
2022/08/12 00:52:50;;;;;;;7.33;6.90;;;15.70;1.00;;;;;;5018201;28;20469;-53
2022/08/12 00:55:16;;;;;;;7.23;6.83;;;15.60;26.10;;;;;;5019286;28;20539;-52
2022/08/12 00:57:47;;;;;;;7.67;7.17;;;15.60;52.10;;;;;;5019504;28;20439;-50
2022/08/12 01:00:18;;;;;;;7.80;7.30;;;15.50;36.30;;;;;;5010835;28;20774;-53
2022/08/12 01:02:50;;;;;;;7.37;6.60;;;15.50;82.90;;;;;;5013511;28;20446;-53
2022/08/12 01:13:38;;;;;;;8.80;7.13;;;15.40;99.90;;;;;;5016752;28;20437;-50
2022/08/12 01:16:06;;;;;;;7.60;6.90;;;15.30;99.90;;;;;;5029672;28;20520;-51
2022/08/12 01:18:34;;;;;;;6.97;6.47;;;15.30;99.90;;;;;;5030537;28;20398;-53
2022/08/12 01:21:42;;;;;;;7.87;7.17;;;15.30;99.90;;;;;;5030149;28;20768;-51
2022/08/12 01:24:26;;;;;;;7.37;6.87;;;15.30;99.90;;;;;;5030115;28;20496;-52
2022/08/12 01:26:54;;;;;;;7.10;6.60;;;15.20;99.90;;;;;;5026320;28;20467;-56
2022/08/12 01:29:26;;;;;;;7.17;6.67;;;15.20;99.90;;;;;;5030317;28;20391;-54
2022/08/12 01:31:57;;;;;;;6.70;6.30;;;15.20;99.90;;;;;;5029995;28;20460;-49
2022/08/12 01:34:29;;;;;;;6.80;6.30;;;15.20;99.90;;;;;;5030038;28;20422;-54
2022/08/12 01:36:58;;;;;;;7.03;6.53;;;15.20;99.90;;;;;;5029267;28;20966;-52
2022/08/12 01:39:46;;;;;;;7.57;7.07;;;15.20;1.00;;;;;;5029663;28;20548;-53
2022/08/12 01:42:15;;;;;;;8.30;7.60;;;15.20;1.00;;;;;;5028925;28;20402;-52
2022/08/12 01:44:43;;;;;;;7.30;6.80;;;15.10;1.00;;;;;;5025194;28;20449;-53
2022/08/12 01:47:29;;;;;;;7.50;6.80;;;15.10;1.00;;;;;;5029008;28;20435;-50
2022/08/12 01:50:19;;;;;;;8.10;7.50;;;15.00;1.00;;;;;;5026129;28;20488;-54
2022/08/12 01:53:04;;;;;;;7.50;7.00;;;14.90;1.00;;;;;;5027130;28;20467;-52
2022/08/12 01:55:33;;;;;;;7.77;7.27;;;14.90;1.00;;;;;;5009898;28;20885;-48
2022/08/12 01:59:45;;;;;;;7.10;6.50;;;14.90;1.00;;;;;;5018166;28;20426;-51
2022/08/12 02:01:26;;;;;;;7.27;6.77;;;14.90;1.00;;;;;;5009566;28;20426;-52
2022/08/12 02:13:40;;;;;;;7.57;6.80;;;14.70;99.90;;;;;;5016692;28;20488;-48
2022/08/12 02:16:22;;;;;;;6.80;6.40;;;14.60;1.00;;;;;;5028276;28;20882;-49
2022/08/12 02:19:28;;;;;;;7.30;6.80;;;14.60;99.90;;;;;;5028529;28;21292;-53
2022/08/12 02:22:16;;;;;;;7.93;7.20;;;14.50;99.90;;;;;;5029392;28;21081;-55
2022/08/12 02:24:44;;;;;;;8.43;7.07;;;14.50;99.90;;;;;;5018859;28;20457;-54
2022/08/12 02:27:12;;;;;;;7.27;6.57;;;14.50;1.00;;;;;;5019806;28;20449;-53
2022/08/12 02:29:39;;;;;;;7.70;7.20;;;14.40;99.90;;;;;;5029201;28;20418;-49
2022/08/12 02:32:06;;;;;;;8.00;7.20;;;14.50;99.90;;;;;;5029117;28;20789;-52
2022/08/12 02:34:32;;;;;;;7.23;6.63;;;14.40;99.90;;;;;;5029404;28;20417;-49
2022/08/12 02:37:00;;;;;;;8.20;7.60;;;14.30;99.90;;;;;;5017108;28;20434;-52
2022/08/12 02:39:28;;;;;;;7.27;6.50;;;14.40;99.90;;;;;;5009775;28;20419;-52
2022/08/12 02:41:59;;;;;;;7.27;6.77;;;14.30;1.00;;;;;;5013507;28;20443;-51
2022/08/12 02:44:27;;;;;;;7.17;6.57;;;14.30;99.90;;;;;;4999546;28;20437;-53
2022/08/12 02:46:55;;;;;;;7.27;6.67;;;14.20;99.90;;;;;;5010335;28;20484;-55
2022/08/12 02:49:28;;;;;;;7.17;6.67;;;14.20;1.00;;;;;;5010698;28;20430;-52
2022/08/12 02:51:55;;;;;;;8.03;7.43;;;14.10;29.20;;;;;;5028783;28;20564;-51
2022/08/12 02:54:21;;;;;;;7.10;6.63;;;14.10;99.90;;;;;;5028928;28;20409;-55
2022/08/12 02:56:47;;;;;;;7.37;6.83;;;14.10;1.00;;;;;;5028181;28;20947;-55
2022/08/12 02:59:15;;;;;;;7.50;6.90;;;14.10;1.00;;;;;;5013821;28;20570;-51
2022/08/12 03:01:50;;;;;;;7.23;6.50;;;14.10;1.00;;;;;;5018064;28;20799;-54
2022/08/12 03:04:30;;;;;;;7.80;7.20;;;14.10;99.90;;;;;;5028252;28;20436;-50
2022/08/12 03:07:13;;;;;;;6.87;6.27;;;14.00;1.00;;;;;;5027933;28;20437;-53
2022/08/12 03:09:48;;;;;;;7.33;6.63;;;14.00;99.90;;;;;;5010130;28;20510;-55
2022/08/12 03:12:16;;;;;;;6.60;6.10;;;13.90;99.90;;;;;;5022029;28;20492;-53
2022/08/12 03:14:42;;;;;;;7.10;6.60;;;13.80;1.00;;;;;;5023532;28;20414;-53
2022/08/12 03:17:31;;;;;;;6.87;6.37;;;13.80;99.90;;;;;;5010871;28;20454;-58
2022/08/12 03:19:57;;;;;;;8.80;6.30;;;13.80;1.00;;;;;;5019950;28;20425;-50
2022/08/12 03:22:24;;;;;;;7.47;6.97;;;13.80;37.10;;;;;;5029459;28;20453;-52
2022/08/12 03:24:50;;;;;;;7.90;7.30;;;13.70;1.00;;;;;;5031969;28;20467;-54
2022/08/12 03:27:16;;;;;;;7.90;7.30;;;13.80;99.90;;;;;;5031112;28;20437;-53
2022/08/12 03:29:49;;;;;;;7.37;6.87;;;13.80;1.00;;;;;;5031414;28;20225;-52
2022/08/12 03:32:17;;;;;;;7.40;6.90;;;13.70;24.60;;;;;;5019173;28;20414;-50
2022/08/12 03:34:48;;;;;;;7.50;7.00;;;13.60;99.90;;;;;;5018408;28;20788;-52
2022/08/12 03:37:14;;;;;;;7.20;6.63;;;13.50;99.90;;;;;;5013547;28;20445;-53
2022/08/12 03:39:42;;;;;;;8.30;7.50;;;13.40;99.90;;;;;;5017838;28;20421;-54
2022/08/12 03:42:21;;;;;;;8.03;7.07;;;13.40;1.00;;;;;;5031748;28;20465;-51
2022/08/12 04:01:56;;;;;;;8.77;7.03;;;13.30;1.00;;;;;;5031528;28;20460;-53
2022/08/12 04:04:26;;;;;;;8.00;7.40;;;13.30;1.00;;;;;;5023606;28;20439;-49
2022/08/12 04:06:52;;;;;;;8.63;7.93;;;13.30;1.00;;;;;;5013758;28;20427;-53
2022/08/12 04:09:21;;;;;;;8.20;7.50;;;13.20;83.20;;;;;;5005546;28;20439;-53
2022/08/12 04:14:33;;;;;;;7.70;7.10;;;13.20;99.90;;;;;;5013264;28;20533;-53
2022/08/12 04:17:00;;;;;;;7.90;7.20;;;13.20;99.90;;;;;;5001364;28;21777;-52
2022/08/12 04:19:26;;;;;;;8.00;6.83;;;13.20;99.90;;;;;;5003659;28;20481;-52
2022/08/12 04:21:54;;;;;;;7.60;7.00;;;13.30;99.90;;;;;;5003582;28;20462;-50
2022/08/12 04:24:23;;;;;;;8.50;7.80;;;13.30;99.90;;;;;;5003294;28;20532;-54
2022/08/12 04:26:49;;;;;;;8.03;7.33;;;13.20;99.90;;;;;;5003358;28;20423;-53
2022/08/12 04:29:14;;;;;;;8.00;7.30;;;13.20;99.90;;;;;;5004215;28;20480;-51
2022/08/12 04:31:41;;;;;;;8.53;7.80;;;13.20;99.90;;;;;;5004057;28;20285;-53
2022/08/12 04:34:08;;;;;;;8.00;7.30;;;13.30;99.90;;;;;;5003147;28;20270;-55
2022/08/12 04:36:37;;;;;;;8.27;7.60;;;13.30;99.90;;;;;;5003679;28;20482;-51
2022/08/12 04:39:04;;;;;;;7.80;7.17;;;13.30;49.90;;;;;;5004263;28;20445;-54
2022/08/12 04:41:31;;;;;;;7.73;7.03;;;13.40;1.00;;;;;;5012404;28;20497;-52
2022/08/12 04:43:57;;;;;;;7.90;7.20;;;13.40;1.00;;;;;;5030752;28;20835;-51
2022/08/12 04:46:25;;;;;;;9.53;7.50;;;13.50;1.00;;;;;;5030998;28;20492;-49
2022/08/12 04:48:52;;;;;;;7.50;6.90;;;13.50;1.00;;;;;;5030004;28;20214;-54
2022/08/12 04:51:19;;;;;;;8.53;7.83;;;13.60;1.00;;;;;;5024713;28;20430;-55
2022/08/12 04:53:46;;;;;;;7.37;6.77;;;13.60;1.00;;;;;;5028185;28;20760;-52
2022/08/12 04:56:12;;;;;;;10.20;8.20;;;13.70;1.00;;;;;;5001913;28;20923;-55
2022/08/12 04:58:39;;;;;;;7.80;7.10;;;13.70;1.00;;;;;;5010027;28;20445;-54
2022/08/12 05:01:05;;;;;;;15.70;9.80;;;13.70;1.00;;;;;;5018679;28;20438;-52
2022/08/12 05:03:33;;;;;;;8.60;7.80;;;13.80;99.90;;;;;;5024882;28;20779;-56
2022/08/12 05:05:58;;;;;;;8.47;7.77;;;13.90;52.60;;;;;;5025040;28;20425;-51
2022/08/12 05:08:25;;;;;;;7.87;7.17;;;13.90;99.90;;;;;;5021545;28;20446;-54
2022/08/12 05:10:51;;;;;;;7.40;6.90;;;13.90;1.00;;;;;;5025749;28;20544;-52
2022/08/12 05:13:26;;;;;;;8.27;7.57;;;13.90;99.90;;;;;;5020588;28;20917;-49
2022/08/12 05:15:51;;;;;;;8.07;7.47;;;14.00;20.50;;;;;;5026755;28;20476;-54
2022/08/12 05:18:18;;;;;;;8.17;7.57;;;13.90;1.00;;;;;;5018716;28;20778;-52
2022/08/12 05:20:43;;;;;;;7.77;7.17;;;13.90;99.90;;;;;;5013632;28;20410;-56
2022/08/12 05:23:15;;;;;;;7.50;6.90;;;14.00;96.70;;;;;;5028014;28;20507;-50
2022/08/12 05:25:44;;;;;;;8.13;7.43;;;14.00;1.00;;;;;;5013771;28;20353;-55
2022/08/12 05:28:11;;;;;;;7.53;6.93;;;14.20;99.90;;;;;;5018968;28;20537;-56
2022/08/12 05:30:37;;;;;;;8.60;7.90;;;14.20;1.00;;;;;;5014073;28;20521;-55
2022/08/12 05:33:04;;;;;;;8.00;7.30;;;14.10;1.00;;;;;;5015494;28;20450;-51
2022/08/12 05:35:38;;;;;;;8.23;7.43;;;14.20;1.00;;;;;;5010411;28;20427;-57
2022/08/12 05:40:49;;;;;;;8.03;7.37;;;14.30;1.00;;;;;;5010634;28;20430;-51
2022/08/12 05:43:14;;;;;;;8.57;7.77;;;14.50;99.90;;;;;;5009306;28;20497;-56
2022/08/12 05:45:40;;;;;;;8.07;7.47;;;14.60;1.00;;;;;;5016312;28;20462;-54
2022/08/12 05:48:06;;;;;;;10.37;7.80;;;14.70;1.00;;;;;;5028936;28;20437;-58
2022/08/12 05:50:34;;;;;;;8.13;7.30;;;14.80;1.00;;;;;;5008180;28;20375;-53
2022/08/12 05:53:00;;;;;;;8.07;7.43;;;14.80;1.00;;;;;;5007890;28;20439;-51
2022/08/12 05:55:26;;;;;;;8.57;7.87;;;14.90;99.90;;;;;;5021434;28;20432;-54
2022/08/12 05:57:55;;;;;;;7.57;7.07;;;14.90;99.90;;;;;;5024512;28;20946;-53
2022/08/12 06:00:24;;;;;;;8.77;7.97;;;15.10;1.00;;;;;;5020811;28;21002;-48
2022/08/12 06:02:59;;;;;;;7.60;7.00;;;15.30;99.90;;;;;;5025288;28;20457;-54
2022/08/12 06:05:26;;;;;;;8.00;7.30;;;15.50;99.90;;;;;;5029552;28;20507;-54
2022/08/12 06:07:56;;;;;;;7.73;7.03;;;15.50;99.90;;;;;;5028552;28;20442;-52
2022/08/12 06:10:22;;;;;;;8.40;7.70;;;15.60;28.20;;;;;;5020039;28;20423;-55
2022/08/12 06:12:48;;;;;;;7.80;7.20;;;15.70;1.00;;;;;;5009797;28;20950;-52
2022/08/12 06:15:16;;;;;;;10.57;7.00;;;15.70;1.00;;;;;;5009594;28;20431;-52
2022/08/12 06:17:42;;;;;;;8.10;7.53;;;15.80;1.00;;;;;;5009994;28;20441;-55
2022/08/12 06:20:12;;;;;;;7.30;6.80;;;15.90;1.00;;;;;;5020064;28;20758;-51
2022/08/12 06:22:38;;;;;;;7.97;7.47;;;16.00;1.00;;;;;;5024371;28;20469;-56
2022/08/12 06:25:05;;;;;;;7.23;6.70;;;16.10;1.00;;;;;;5029042;28;20488;-51
2022/08/12 06:27:31;;;;;;;8.20;7.50;;;16.20;99.90;;;;;;5029576;28;20392;-53
2022/08/12 06:29:57;;;;;;;7.67;7.10;;;16.30;99.90;;;;;;5028522;28;20437;-53
2022/08/12 06:32:23;;;;;;;8.67;7.80;;;16.30;99.90;;;;;;5029221;28;20161;-53
2022/08/12 06:34:49;;;;;;;8.83;7.93;;;16.50;99.90;;;;;;5029167;28;20877;-51
2022/08/12 06:37:17;;;;;;;7.50;6.90;;;16.60;99.90;;;;;;5029477;28;20399;-50
2022/08/12 06:39:43;;;;;;;8.60;7.97;;;16.80;99.90;;;;;;5028701;28;20299;-50
2022/08/12 06:44:52;;;;;;;7.63;7.13;;;17.10;99.90;;;;;;5027735;28;20164;-51
2022/08/12 06:47:20;;;;;;;7.90;7.30;;;17.30;99.90;;;;;;5028649;28;20410;-51
2022/08/12 06:49:47;;;;;;;8.73;7.97;;;17.50;44.10;;;;;;5027016;28;20174;-54
2022/08/12 06:52:13;;;;;;;8.83;7.80;;;17.60;1.00;;;;;;5026086;28;20918;-53
2022/08/12 06:54:43;;;;;;;8.80;7.90;;;17.70;1.00;;;;;;5030688;28;20413;-53
2022/08/12 06:57:08;;;;;;;8.53;7.93;;;17.80;1.00;;;;;;5030926;28;20182;-52
2022/08/12 06:59:34;;;;;;;8.13;7.43;;;17.80;1.00;;;;;;5031386;28;20445;-51
2022/08/12 07:02:00;;;;;;;8.83;7.93;;;17.90;1.00;;;;;;5029145;28;20296;-53
2022/08/12 07:04:25;;;;;;;8.20;7.60;;;18.00;1.00;;;;;;5027981;28;20194;-55
2022/08/12 07:06:53;;;;;;;7.67;7.03;;;18.00;1.00;;;;;;5030944;28;20292;-52
2022/08/12 07:09:20;;;;;;;7.73;7.07;;;18.10;1.00;;;;;;5030168;28;20190;-57
2022/08/12 07:11:45;;;;;;;8.10;7.57;;;18.20;1.00;;;;;;5031083;28;20426;-53
2022/08/12 07:14:11;;;;;;;11.43;7.60;;;18.30;1.00;;;;;;5029762;28;20507;-50
2022/08/12 07:16:52;;;;;;;9.27;8.40;;;18.40;1.00;;;;;;5029536;28;20186;-54
2022/08/12 07:19:18;;;;;;;7.87;7.17;;;18.50;1.00;;;;;;5011900;28;20196;-51
2022/08/12 07:21:45;;;;;;;9.37;8.57;;;18.80;1.00;;;;;;5031801;28;20570;-53
2022/08/12 07:24:11;;;;;;;8.70;8.17;;;19.00;1.00;;;;;;5030261;28;20453;-53
2022/08/12 07:26:40;;;;;;;8.27;7.63;;;19.20;1.00;;;;;;5029735;28;20428;-54
2022/08/12 07:29:09;;;;;;;8.50;7.60;;;19.40;1.00;;;;;;5030942;28;20175;-53
2022/08/12 07:31:36;;;;;;;9.73;7.50;;;19.60;1.00;;;;;;5032080;28;20757;-52
2022/08/12 07:34:02;;;;;;;7.83;7.23;;;19.80;1.00;;;;;;5016361;28;20835;-56
2022/08/12 07:36:28;;;;;;;8.33;7.60;;;20.00;1.00;;;;;;5012444;28;20418;-52
2022/08/12 07:38:54;;;;;;;7.73;7.10;;;20.10;99.90;;;;;;5025552;28;20487;-55
2022/08/12 07:41:21;;;;;;;7.97;7.47;;;20.20;99.90;;;;;;5024118;28;20220;-52
2022/08/12 07:43:55;;;;;;;9.07;7.40;;;20.30;99.90;;;;;;5026048;28;20187;-55
2022/08/12 07:46:23;;;;;;;8.03;7.03;;;20.60;99.90;;;;;;5024631;28;20409;-49
2022/08/12 07:48:57;;;;;;;8.00;7.40;;;20.70;99.90;;;;;;5027401;28;20462;-51
2022/08/12 07:51:24;;;;;;;8.40;7.53;;;20.90;99.90;;;;;;5031511;28;20414;-52
2022/08/12 07:53:50;;;;;;;8.37;7.50;;;21.20;99.90;;;;;;5031637;28;20416;-53
2022/08/12 07:56:18;;;;;;;8.10;7.50;;;21.50;99.90;;;;;;5031545;28;20420;-47
2022/08/12 07:58:44;;;;;;;7.83;7.10;;;21.80;99.90;;;;;;5018389;28;20487;-48
2022/08/12 08:01:17;;;;;;;7.77;6.97;;;22.10;99.90;;;;;;5031609;28;20507;-54
2022/08/12 08:06:30;;;;;;;6.97;6.53;;;22.60;99.90;;;;;;5030453;28;20928;-51
2022/08/12 08:09:01;;;;;;;7.30;6.80;;;22.50;99.90;;;;;;5031579;28;20425;-54
2022/08/12 08:14:12;;;;;;;7.53;6.90;;;22.50;99.90;;;;;;5031498;28;20441;-53
2022/08/12 08:16:39;;;;;;;7.30;6.60;;;22.60;99.90;;;;;;5031029;28;20539;-51
2022/08/12 08:19:06;;;;;;;6.63;6.13;;;22.80;99.90;;;;;;5024394;28;20425;-53
2022/08/12 08:21:34;;;;;;;6.40;6.10;;;23.10;99.90;;;;;;5025362;28;20922;-51
2022/08/12 08:24:15;;;;;;;7.07;6.67;;;23.30;99.90;;;;;;5012189;28;20429;-49
2022/08/12 08:26:47;;;;;;;6.50;6.10;;;23.40;99.90;;;;;;5012235;28;20434;-52
2022/08/12 08:29:17;;;;;;;8.00;7.30;;;23.70;99.90;;;;;;5031316;28;20441;-51
2022/08/12 08:31:45;;;;;;;6.50;6.10;;;23.90;99.90;;;;;;5030592;28;20430;-54
2022/08/12 08:34:12;;;;;;;7.10;6.67;;;24.10;99.90;;;;;;5021771;28;21105;-49
2022/08/12 08:36:39;;;;;;;6.40;6.00;;;24.30;99.90;;;;;;5010909;28;20431;-53
2022/08/12 08:39:06;;;;;;;7.10;6.60;;;24.60;99.90;;;;;;5017309;28;20450;-53
2022/08/12 08:44:15;;;;;;;6.43;5.93;;;24.60;99.90;;;;;;5030255;28;20433;-51
2022/08/12 08:46:45;;;;;;;6.73;6.07;;;24.70;99.90;;;;;;5027068;28;20431;-55
2022/08/12 08:49:11;;;;;;;6.27;5.97;;;24.80;99.90;;;;;;5030491;28;20183;-54
2022/08/12 08:51:38;;;;;;;7.10;6.70;;;25.00;99.90;;;;;;5039136;28;20437;-52
2022/08/12 08:54:05;;;;;;;6.40;6.00;;;25.20;99.90;;;;;;5033935;28;20428;-54
2022/08/12 08:56:32;;;;;;;6.70;6.10;;;25.40;99.90;;;;;;5030208;28;20424;-51
2022/08/12 08:58:58;;;;;;;6.00;5.60;;;25.40;99.90;;;;;;5030378;28;20420;-51
2022/08/12 09:01:24;;;;;;;6.37;5.97;;;25.40;99.90;;;;;;5023963;28;20441;-54
2022/08/12 09:03:50;;;;;;;9.20;6.40;;;25.60;99.90;;;;;;5018536;28;20427;-53
2022/08/12 09:06:15;;;;;;;6.63;6.23;;;25.90;99.90;;;;;;5025640;28;20482;-55
2022/08/12 09:08:42;;;;;;;6.00;5.70;;;26.10;99.90;;;;;;5022417;28;20240;-51
2022/08/12 09:13:51;;;;;;;5.50;5.17;;;26.40;99.90;;;;;;5026297;28;20895;-53
2022/08/12 09:16:17;;;;;;;4.93;4.73;;;26.70;99.90;;;;;;5025627;28;20421;-54
2022/08/12 09:18:43;;;;;;;5.27;5.07;;;26.90;99.90;;;;;;5028244;28;20182;-51
2022/08/12 09:21:09;;;;;;;5.07;4.87;;;27.10;99.90;;;;;;5027462;28;20244;-48
2022/08/12 09:23:37;;;;;;;5.43;5.13;;;27.20;99.90;;;;;;5026070;28;20253;-51
2022/08/12 09:26:03;;;;;;;5.30;5.00;;;27.30;99.90;;;;;;5026367;28;20465;-54
2022/08/12 09:28:29;;;;;;;5.57;5.37;;;27.40;99.90;;;;;;5023123;28;21023;-52
2022/08/12 09:30:57;;;;;;;5.00;4.70;;;27.40;99.90;;;;;;5010367;28;20629;-55
2022/08/12 09:33:33;;;;;;;6.10;5.50;;;27.50;99.90;;;;;;5014860;28;20191;-56
2022/08/12 09:36:01;;;;;;;5.87;5.47;;;27.70;99.90;;;;;;5020961;28;20435;-53
2022/08/12 09:38:28;;;;;;;5.70;5.30;;;27.80;99.90;;;;;;5009024;28;20425;-52
2022/08/12 09:40:53;;;;;;;7.10;5.07;;;27.80;99.90;;;;;;5028938;28;20817;-50
2022/08/12 09:46:03;;;;;;;6.30;5.83;;;28.30;99.90;;;;;;5029167;28;20610;-52
2022/08/12 09:48:31;;;;;;;11.10;6.20;;;28.70;99.90;;;;;;5024541;28;20450;-51
2022/08/12 09:50:57;;;;;;;5.67;5.20;;;28.80;99.90;;;;;;5029217;28;20199;-50
2022/08/12 09:53:24;;;;;;;5.27;5.07;;;29.00;99.90;;;;;;5028326;28;20539;-50
2022/08/12 09:55:55;;;;;;;5.60;5.30;;;29.10;99.90;;;;;;5029271;28;20191;-54
2022/08/12 09:58:29;;;;;;;5.47;5.07;;;29.20;99.90;;;;;;5029312;28;20450;-52
2022/08/12 10:01:00;;;;;;;6.33;5.73;;;29.00;99.90;;;;;;5029391;28;20417;-56
2022/08/12 10:03:30;;;;;;;5.50;5.30;;;28.70;99.90;;;;;;5028286;28;20473;-53
2022/08/12 10:05:56;;;;;;;5.90;5.60;;;28.50;99.90;;;;;;5029270;28;20517;-52
2022/08/12 10:08:26;;;;;;;6.60;6.10;;;28.30;99.90;;;;;;5029120;28;20445;-54
2022/08/12 10:13:40;;;;;;;6.30;5.93;;;28.10;99.90;;;;;;5028300;28;20492;-52
2022/08/12 10:16:11;;;;;;;6.07;5.67;;;28.00;99.90;;;;;;5028991;28;20437;-56
2022/08/12 10:18:42;;;;;;;5.97;5.60;;;27.90;99.90;;;;;;5028302;28;20437;-50
2022/08/12 10:21:13;;;;;;;6.77;6.47;;;27.80;99.90;;;;;;5012705;28;20450;-54
2022/08/12 10:23:41;;;;;;;6.57;6.17;;;27.70;99.90;;;;;;5015942;28;20864;-54
2022/08/12 10:31:37;;;;;;;5.83;5.53;;;27.70;99.90;;;;;;5027865;28;20467;-54
2022/08/12 10:34:04;;;;;;;5.97;5.57;;;27.70;99.90;;;;;;5017394;28;20462;-53
2022/08/12 10:36:31;;;;;;;6.20;5.90;;;27.70;99.90;;;;;;5029131;28;20983;-52
2022/08/12 10:38:57;;;;;;;6.57;5.97;;;27.70;99.90;;;;;;5015701;28;21385;-52
2022/08/12 10:44:12;;;;;;;6.37;5.97;;;27.70;99.90;;;;;;5017298;28;20201;-49
2022/08/12 10:46:38;;;;;;;6.73;6.23;;;27.50;99.90;;;;;;5015451;28;21179;-49
2022/08/12 10:49:03;;;;;;;6.30;5.90;;;27.50;99.90;;;;;;5030855;28;20426;-53
2022/08/12 10:51:30;;;;;;;6.13;5.83;;;27.60;99.90;;;;;;5035075;28;20187;-54
2022/08/12 10:53:56;;;;;;;6.33;6.03;;;27.90;99.90;;;;;;5033743;28;20704;-52
2022/08/12 10:56:22;;;;;;;5.10;4.90;;;28.10;99.90;;;;;;5016346;28;20426;-54
2022/08/12 10:58:48;;;;;;;5.97;5.60;;;28.40;99.90;;;;;;5034912;28;20503;-51
2022/08/12 11:01:15;;;;;;;5.77;5.47;;;28.60;99.90;;;;;;5034961;28;20437;-54
2022/08/12 11:03:41;;;;;;;6.40;5.90;;;28.90;99.90;;;;;;5033791;28;20224;-53
2022/08/12 11:06:08;;;;;;;6.27;5.97;;;29.10;99.90;;;;;;5032117;28;20459;-54
2022/08/12 11:08:37;;;;;;;6.03;5.63;;;29.30;99.90;;;;;;5024258;28;20239;-55
2022/08/12 11:11:07;;;;;;;6.10;5.80;;;29.30;99.90;;;;;;5035341;28;20421;-55
2022/08/12 11:13:37;;;;;;;6.13;5.73;;;29.50;99.90;;;;;;5025945;28;20564;-51
2022/08/12 11:16:05;;;;;;;5.57;5.27;;;29.70;99.90;;;;;;5015031;28;20440;-54
2022/08/12 11:18:31;;;;;;;6.83;6.27;;;29.90;99.90;;;;;;5015328;28;20593;-53
2022/08/12 11:20:58;;;;;;;5.77;5.30;;;30.30;99.90;;;;;;5022816;28;20467;-49
2022/08/12 11:23:24;;;;;;;6.47;6.07;;;30.40;99.90;;;;;;5024210;28;20542;-56
2022/08/12 11:25:50;;;;;;;6.17;5.77;;;30.30;99.90;;;;;;5019214;28;20466;-50
2022/08/12 11:28:16;;;;;;;6.03;5.63;;;30.00;99.90;;;;;;5018430;28;20514;-54
2022/08/12 11:30:43;;;;;;;5.90;5.60;;;29.80;99.90;;;;;;5032471;28;20198;-51
2022/08/12 11:33:09;;;;;;;6.13;5.73;;;29.50;99.90;;;;;;5028671;28;20988;-52
2022/08/12 11:35:41;;;;;;;5.40;5.20;;;29.50;99.90;;;;;;5019629;28;20431;-55
2022/08/12 11:38:06;;;;;;;5.53;5.23;;;29.80;99.90;;;;;;5014794;28;20441;-53
2022/08/12 11:40:32;;;;;;;5.83;5.43;;;30.10;99.90;;;;;;5033591;28;21080;-54
2022/08/12 11:42:59;;;;;;;5.33;5.13;;;30.40;99.90;;;;;;5029978;28;20301;-53
2022/08/12 11:45:26;;;;;;;5.87;5.47;;;30.80;99.90;;;;;;5033045;28;20324;-53
2022/08/12 11:47:53;;;;;;;6.00;5.70;;;31.00;99.90;;;;;;5030523;28;20499;-52
2022/08/12 11:50:21;;;;;;;6.13;5.60;;;30.90;99.50;;;;;;5026671;28;20560;-53
2022/08/12 11:52:48;;;;;;;6.40;6.10;;;30.80;99.40;;;;;;5028971;28;20540;-52
2022/08/12 11:55:14;;;;;;;5.73;5.33;;;30.50;98.20;;;;;;5028340;28;20433;-52
2022/08/12 11:57:56;;;;;;;6.07;5.67;;;30.60;98.70;;;;;;5027550;28;20429;-53
2022/08/12 12:00:22;;;;;;;5.80;5.50;;;30.80;98.80;;;;;;5027973;28;20186;-56
2022/08/12 12:02:48;;;;;;;5.93;5.63;;;31.00;98.10;;;;;;5032138;28;20484;-56
2022/08/12 12:05:15;;;;;;;5.23;5.03;;;31.30;97.30;;;;;;5031061;28;20444;-49
2022/08/12 12:07:42;;;;;;;5.67;5.27;;;31.60;96.60;;;;;;5025556;28;20657;-55
2022/08/12 12:10:12;;;;;;;5.60;5.30;;;31.90;95.40;;;;;;5021155;28;20433;-53
2022/08/12 12:12:38;;;;;;;6.60;6.10;;;32.20;93.90;;;;;;5029879;28;20499;-52
2022/08/12 12:15:05;;;;;;;5.87;5.57;;;32.30;93.40;;;;;;5021649;28;20427;-51
2022/08/12 12:17:35;;;;;;;6.10;5.80;;;32.20;92.40;;;;;;5029111;28;20218;-54
2022/08/12 12:20:03;;;;;;;6.30;5.90;;;32.20;91.70;;;;;;5014813;28;20525;-53
2022/08/12 12:22:29;;;;;;;6.63;6.00;;;32.00;91.30;;;;;;5023030;28;20473;-54
2022/08/12 12:24:54;;;;;;;6.00;5.70;;;32.00;90.80;;;;;;5030337;28;20473;-55
2022/08/12 12:27:20;;;;;;;7.00;6.60;;;32.10;90.30;;;;;;5029957;28;20215;-54
2022/08/12 12:29:46;;;;;;;6.73;6.33;;;32.00;89.20;;;;;;5028733;28;20278;-51
2022/08/12 12:32:12;;;;;;;6.93;6.33;;;32.40;86.20;;;;;;5030813;28;20210;-54
2022/08/12 12:34:37;;;;;;;6.67;5.90;;;32.50;85.40;;;;;;5029752;28;20195;-56
2022/08/12 12:37:03;;;;;;;6.57;6.23;;;32.60;84.90;;;;;;5030197;28;20637;-55
2022/08/12 12:39:29;;;;;;;6.80;6.20;;;32.90;85.40;;;;;;5029462;28;20198;-54
2022/08/12 12:41:54;;;;;;;6.83;6.13;;;33.10;81.20;;;;;;5030389;28;20209;-55
2022/08/12 12:44:20;;;;;;;5.80;5.40;;;33.30;79.20;;;;;;5029888;28;20244;-54
2022/08/12 12:46:45;;;;;;;6.13;5.63;;;33.10;78.40;;;;;;5028638;28;20218;-55
2022/08/12 12:49:11;;;;;;;7.00;6.50;;;33.50;75.90;;;;;;5028255;28;20187;-57
2022/08/12 12:51:37;;;;;;;5.80;5.50;;;33.10;74.80;;;;;;5025553;28;20236;-53
2022/08/12 12:54:03;;;;;;;6.30;6.00;;;33.10;73.90;;;;;;5029803;28;20226;-54
2022/08/12 12:56:30;;;;;;;5.40;5.17;;;33.30;73.80;;;;;;5028632;28;20195;-57
2022/08/12 12:58:56;;;;;;;5.50;5.30;;;33.50;72.50;;;;;;5029662;28;20495;-55
2022/08/12 13:01:25;;;;;;;6.63;6.33;;;33.80;72.30;;;;;;5030182;28;20430;-53
2022/08/12 13:03:53;;;;;;;5.80;5.50;;;33.90;68.80;;;;;;5018429;28;20195;-52
2022/08/12 13:06:24;;;;;;;6.43;5.90;;;34.20;67.80;;;;;;5027503;28;20449;-52
2022/08/12 13:08:52;;;;;;;6.27;5.97;;;34.50;65.30;;;;;;5024998;28;20766;-49
2022/08/12 13:11:20;;;;;;;6.07;5.50;;;34.90;62.30;;;;;;5012420;28;20505;-53
2022/08/12 13:13:48;;;;;;;5.80;5.60;;;35.20;61.40;;;;;;5028456;28;21121;-53
2022/08/12 13:16:19;;;;;;;5.97;5.57;;;35.30;59.30;;;;;;5029429;28;20486;-54
2022/08/12 13:18:46;;;;;;;5.90;5.60;;;35.90;57.90;;;;;;5027160;28;21247;-54
2022/08/12 13:21:12;;;;;;;5.73;5.43;;;36.30;54.50;;;;;;5029425;28;20422;-50
2022/08/12 13:23:38;;;;;;;5.07;4.77;;;36.30;53.20;;;;;;5023854;28;20473;-50
2022/08/12 13:26:04;;;;;;;5.63;5.33;;;36.20;53.00;;;;;;5028918;28;20540;-51
2022/08/12 13:28:30;;;;;;;5.97;5.57;;;36.50;52.50;;;;;;5013669;28;20439;-53
2022/08/12 13:30:58;;;;;;;5.63;5.43;;;36.90;50.40;;;;;;5010331;28;20266;-54
2022/08/12 13:33:26;;;;;;;4.93;4.73;;;37.10;48.70;;;;;;5015838;28;20461;-53
2022/08/12 13:35:59;;;;;;;5.67;5.30;;;37.80;46.50;;;;;;5018635;28;20449;-51
2022/08/12 13:38:42;;;;;;;5.67;5.30;;;38.10;45.90;;;;;;5017015;28;20746;-50
2022/08/12 13:41:31;;;;;;;5.60;5.20;;;38.60;42.90;;;;;;5029934;28;20773;-54
2022/08/12 13:43:58;;;;;;;5.53;5.23;;;38.20;40.60;;;;;;5027594;28;20947;-55
2022/08/12 13:46:24;;;;;;;6.10;5.90;;;38.00;39.80;;;;;;5013609;28;20423;-57
2022/08/12 13:48:50;;;;;;;6.00;5.50;;;38.30;39.60;;;;;;5007776;28;20781;-56
2022/08/12 13:51:15;;;;;;;6.20;5.80;;;38.70;37.70;;;;;;5012636;28;20468;-52
2022/08/12 13:53:41;;;;;;;5.50;5.20;;;39.20;37.40;;;;;;5028873;28;20222;-53
2022/08/12 13:56:10;;;;;;;6.10;5.80;;;39.30;37.10;;;;;;5021814;28;20304;-51
2022/08/12 13:58:41;;;;;;;6.20;5.83;;;39.90;37.20;;;;;;5032548;28;20179;-56
2022/08/12 14:01:07;;;;;;;5.40;5.20;;;40.00;33.30;;;;;;5011147;28;20433;-55
2022/08/12 14:03:36;;;;;;;4.83;4.63;;;39.80;32.60;;;;;;5019714;28;20800;-54
2022/08/12 14:06:03;;;;;;;5.53;5.13;;;39.10;31.10;;;;;;5024507;28;20194;-55
2022/08/12 14:08:29;;;;;;;5.57;5.13;;;37.80;31.20;;;;;;5017422;28;20426;-55
2022/08/12 14:10:55;;;;;;;5.30;5.00;;;37.20;31.20;;;;;;5028461;28;20445;-53
2022/08/12 14:13:23;;;;;;;5.30;5.00;;;37.50;30.50;;;;;;5029382;28;20802;-53
2022/08/12 14:16:01;;;;;;;5.10;4.90;;;38.00;29.60;;;;;;5028788;28;20205;-50
2022/08/12 14:18:35;;;;;;;5.40;5.10;;;38.30;29.50;;;;;;5020451;28;20442;-55
2022/08/12 14:21:03;;;;;;;6.10;5.80;;;38.60;28.60;;;;;;5028487;28;20552;-54
2022/08/12 14:23:32;;;;;;;6.03;5.73;;;38.90;40.50;;;;;;5020495;28;20437;-54
2022/08/12 14:25:59;;;;;;;5.20;5.00;;;39.20;27.60;;;;;;5018410;28;21143;-53
2022/08/12 14:28:31;;;;;;;5.30;5.10;;;39.70;26.80;;;;;;5018214;28;20797;-55
2022/08/12 14:30:59;;;;;;;5.40;5.00;;;39.90;26.30;;;;;;5020356;28;20429;-53
2022/08/12 14:33:51;;;;;;;5.43;5.23;;;39.70;24.80;;;;;;5024562;28;20470;-53
2022/08/12 14:36:24;;;;;;;5.83;5.53;;;39.70;25.00;;;;;;5019514;28;20814;-56
2022/08/12 14:38:53;;;;;;;5.40;5.20;;;40.20;23.80;;;;;;5029360;28;20450;-56
2022/08/12 14:41:25;;;;;;;5.10;4.80;;;40.30;24.20;;;;;;5028507;28;20788;-56
2022/08/12 14:43:51;;;;;;;5.50;5.23;;;40.40;23.40;;;;;;5014506;28;20776;-53
2022/08/12 14:46:19;;;;;;;5.77;5.27;;;39.40;24.90;;;;;;5017414;28;20532;-54